Time;durP1;ratioP1;P1;durP2;ratioP2;P2;SDS_P1;SDS_P2;PMS_P1;PMS_P2;Temp;Humidity;BMP_temperature;BMP_pressure;BME280_temperature;BME280_humidity;BME280_pressure;Samples;Min_cycle;Max_cycle;Signal;HPM_P1;HPM_P2
2022/04/15 00:02:02;;;;;;;18.70;6.50;;;8.10;99.90;;;;;;5011460;28;20490;-44
2022/04/15 00:04:30;;;;;;;11.02;5.22;;;8.00;99.90;;;;;;5014408;28;20534;-44
2022/04/15 00:06:57;;;;;;;13.13;5.38;;;8.00;99.90;;;;;;5011178;28;20089;-44
2022/04/15 00:09:24;;;;;;;13.00;4.90;;;7.90;99.90;;;;;;5015362;28;20052;-44
2022/04/15 00:11:51;;;;;;;10.30;5.00;;;7.90;99.90;;;;;;5014671;28;20092;-43
2022/04/15 00:14:18;;;;;;;11.25;4.70;;;7.90;99.90;;;;;;5011804;28;20064;-43
2022/04/15 00:16:46;;;;;;;9.32;4.90;;;7.90;99.90;;;;;;5003175;28;20050;-42
2022/04/15 00:19:13;;;;;;;12.80;5.22;;;7.90;99.90;;;;;;5014593;28;20042;-44
2022/04/15 00:21:40;;;;;;;11.43;4.90;;;7.80;99.90;;;;;;5013089;28;20045;-43
2022/04/15 00:24:07;;;;;;;9.90;4.68;;;7.70;99.90;;;;;;5013319;28;20049;-43
2022/04/15 00:26:34;;;;;;;11.27;4.75;;;7.80;99.90;;;;;;5014270;28;20133;-44
2022/04/15 00:29:03;;;;;;;15.23;5.22;;;7.80;99.90;;;;;;5013639;28;20049;-43
2022/04/15 00:31:29;;;;;;;12.13;5.35;;;7.80;99.90;;;;;;5013107;28;20465;-43
2022/04/15 00:33:57;;;;;;;10.18;5.35;;;7.80;99.90;;;;;;5012186;28;20045;-43
2022/04/15 00:36:24;;;;;;;8.13;4.57;;;7.70;99.90;;;;;;5012465;28;20054;-43
2022/04/15 00:38:51;;;;;;;13.50;5.20;;;7.70;99.90;;;;;;5013505;28;20413;-43
2022/04/15 00:41:17;;;;;;;15.90;6.88;;;7.70;99.90;;;;;;5014440;28;20129;-43
2022/04/15 00:43:44;;;;;;;11.23;5.85;;;7.60;99.90;;;;;;5006277;28;20136;-44
2022/04/15 00:46:11;;;;;;;9.73;4.75;;;7.60;99.90;;;;;;5007399;28;20049;-43
2022/04/15 00:48:38;;;;;;;7.10;4.25;;;7.50;99.90;;;;;;5012911;28;20056;-43
2022/04/15 00:51:06;;;;;;;12.63;6.40;;;7.50;99.90;;;;;;5013656;28;20099;-43
2022/04/15 00:53:33;;;;;;;8.10;5.30;;;7.50;99.90;;;;;;5013075;28;20046;-43
2022/04/15 00:56:01;;;;;;;10.05;4.50;;;7.40;99.90;;;;;;5013869;28;20057;-45
2022/04/15 00:58:28;;;;;;;13.15;5.50;;;7.40;99.90;;;;;;5012293;28;20461;-42
2022/04/15 01:00:56;;;;;;;10.70;5.43;;;7.40;99.90;;;;;;5011981;28;20138;-43
2022/04/15 01:03:23;;;;;;;9.93;5.38;;;7.40;99.90;;;;;;5012855;28;20061;-43
2022/04/15 01:05:50;;;;;;;10.13;5.35;;;7.40;99.90;;;;;;5006590;28;20608;-43
2022/04/15 01:08:21;;;;;;;18.52;5.82;;;7.30;99.90;;;;;;5010101;28;20494;-43
2022/04/15 01:10:48;;;;;;;12.05;6.22;;;7.30;99.90;;;;;;5009170;28;20053;-44
2022/04/15 01:13:15;;;;;;;12.90;5.43;;;7.30;99.90;;;;;;5005967;28;20050;-44
2022/04/15 01:15:42;;;;;;;12.50;6.57;;;7.30;99.90;;;;;;5012641;28;20049;-44
2022/04/15 01:18:08;;;;;;;9.63;6.25;;;7.30;99.90;;;;;;5012009;28;20542;-44
2022/04/15 01:20:35;;;;;;;11.07;6.40;;;7.30;99.90;;;;;;5007360;28;20421;-44
2022/04/15 01:23:06;;;;;;;13.65;6.38;;;7.30;99.90;;;;;;5005549;28;20050;-44
2022/04/15 01:25:33;;;;;;;10.65;6.47;;;7.30;99.90;;;;;;5013652;28;20383;-44
2022/04/15 01:27:59;;;;;;;15.23;7.22;;;7.40;99.90;;;;;;5013167;28;20054;-44
2022/04/15 01:30:26;;;;;;;12.38;6.10;;;7.40;99.90;;;;;;5011414;28;20050;-44
2022/04/15 01:32:53;;;;;;;15.13;7.30;;;7.40;99.90;;;;;;5013167;28;20052;-44
2022/04/15 01:35:20;;;;;;;12.65;7.13;;;7.40;99.90;;;;;;5013292;28;20046;-44
2022/04/15 01:37:47;;;;;;;16.80;7.20;;;7.40;99.90;;;;;;5010489;28;20482;-44
2022/04/15 01:40:16;;;;;;;12.52;6.28;;;7.40;99.90;;;;;;5003631;28;20053;-45
2022/04/15 01:42:43;;;;;;;10.63;7.28;;;7.40;99.90;;;;;;5011550;28;20068;-45
2022/04/15 01:45:10;;;;;;;10.55;5.85;;;7.50;99.90;;;;;;5012070;28;20140;-44
2022/04/15 01:47:37;;;;;;;11.45;7.03;;;7.50;99.90;;;;;;5007209;28;20057;-44
2022/04/15 01:50:04;;;;;;;15.20;7.45;;;7.50;99.90;;;;;;5011779;28;20057;-44
2022/04/15 01:52:30;;;;;;;14.18;7.28;;;7.50;99.90;;;;;;5012728;28;20052;-44
2022/04/15 01:54:57;;;;;;;19.70;7.68;;;7.50;99.90;;;;;;5013043;28;20124;-44
2022/04/15 01:57:25;;;;;;;17.83;8.48;;;7.50;99.90;;;;;;5009150;28;20057;-44
2022/04/15 01:59:52;;;;;;;11.50;7.32;;;7.60;99.90;;;;;;5004659;28;20046;-44
2022/04/15 02:02:19;;;;;;;16.05;8.30;;;7.50;99.90;;;;;;5012363;28;20383;-44
2022/04/15 02:04:45;;;;;;;11.25;6.75;;;7.60;99.90;;;;;;5011933;28;20050;-44
2022/04/15 02:07:12;;;;;;;14.10;8.02;;;7.60;99.90;;;;;;5012001;28;20050;-44
2022/04/15 02:09:39;;;;;;;17.75;8.35;;;7.60;99.90;;;;;;5009011;28;20042;-44
2022/04/15 02:12:06;;;;;;;11.30;6.82;;;7.60;99.90;;;;;;5003172;28;20067;-44
2022/04/15 02:14:34;;;;;;;10.00;6.10;;;7.70;99.90;;;;;;5011525;28;20136;-44
2022/04/15 02:17:01;;;;;;;11.98;6.63;;;7.70;99.90;;;;;;5012782;28;20391;-44
2022/04/15 02:19:28;;;;;;;13.23;6.55;;;7.70;99.90;;;;;;5004229;28;20042;-43
2022/04/15 02:21:54;;;;;;;13.82;6.60;;;7.70;99.90;;;;;;5009719;28;20050;-44
2022/04/15 02:24:21;;;;;;;14.88;8.02;;;7.70;99.90;;;;;;5012448;28;20421;-43
2022/04/15 02:26:48;;;;;;;12.70;8.13;;;7.80;99.90;;;;;;5011560;28;20042;-44
2022/04/15 02:29:14;;;;;;;14.30;7.57;;;7.80;99.90;;;;;;5004725;28;20046;-43
2022/04/15 02:31:43;;;;;;;13.07;6.65;;;7.80;99.90;;;;;;5005735;28;20048;-44
2022/04/15 02:34:10;;;;;;;12.23;6.78;;;7.90;99.90;;;;;;5011322;28;20061;-44
2022/04/15 02:36:36;;;;;;;11.75;6.88;;;7.80;99.90;;;;;;5011125;28;20486;-44
2022/04/15 02:39:03;;;;;;;17.52;7.68;;;7.90;99.90;;;;;;5005059;28;20038;-43
2022/04/15 02:41:30;;;;;;;9.93;6.63;;;7.90;99.90;;;;;;5010596;28;20058;-44
2022/04/15 02:43:56;;;;;;;10.95;6.75;;;7.90;99.90;;;;;;5011860;28;20085;-44
2022/04/15 02:46:23;;;;;;;9.55;6.20;;;7.90;99.90;;;;;;5010756;28;20054;-43
2022/04/15 02:48:51;;;;;;;14.30;6.88;;;7.90;99.90;;;;;;5002890;28;20061;-44
2022/04/15 02:51:18;;;;;;;13.27;8.23;;;8.00;99.90;;;;;;5011160;28;20057;-44
2022/04/15 02:53:44;;;;;;;14.07;7.22;;;7.90;99.90;;;;;;5010118;28;20070;-44
2022/04/15 02:56:11;;;;;;;15.10;7.68;;;8.00;99.90;;;;;;5028585;28;20049;-44
2022/04/15 02:58:38;;;;;;;14.13;7.03;;;8.00;99.90;;;;;;5015515;28;20056;-43
2022/04/15 03:01:04;;;;;;;14.57;8.30;;;8.00;99.90;;;;;;5014168;28;20053;-44
2022/04/15 03:03:33;;;;;;;18.20;7.90;;;8.00;99.90;;;;;;5015336;28;20081;-43
2022/04/15 03:06:02;;;;;;;14.02;7.80;;;8.00;99.90;;;;;;5014863;28;20118;-44
2022/04/15 03:08:30;;;;;;;12.50;7.70;;;8.00;99.90;;;;;;5010380;28;20046;-43
2022/04/15 03:10:57;;;;;;;12.52;7.47;;;8.00;99.90;;;;;;5006284;28;20057;-44
2022/04/15 03:13:23;;;;;;;10.05;6.93;;;8.00;99.90;;;;;;5015733;28;20049;-44
2022/04/15 03:15:50;;;;;;;13.77;7.68;;;8.00;99.90;;;;;;5015246;28;20061;-43
2022/04/15 03:18:17;;;;;;;17.30;8.10;;;8.10;99.90;;;;;;5010448;28;20045;-44
2022/04/15 03:20:44;;;;;;;17.85;8.35;;;8.10;99.90;;;;;;5013790;28;20050;-43
2022/04/15 03:23:12;;;;;;;11.82;7.03;;;8.10;99.90;;;;;;5014859;28;20061;-43
2022/04/15 03:25:38;;;;;;;12.23;7.00;;;8.10;99.90;;;;;;5013889;28;20734;-43
2022/04/15 03:28:05;;;;;;;12.27;6.88;;;8.10;99.90;;;;;;5011423;28;20077;-43
2022/04/15 03:30:32;;;;;;;12.98;7.05;;;8.10;99.90;;;;;;5006560;28;20052;-44
2022/04/15 03:32:59;;;;;;;12.45;7.00;;;8.10;99.90;;;;;;5014546;28;20046;-43
2022/04/15 03:35:25;;;;;;;11.57;7.55;;;8.10;99.90;;;;;;5014549;28;20402;-43
2022/04/15 03:37:52;;;;;;;14.40;8.15;;;8.10;99.90;;;;;;5013849;28;20081;-44
2022/04/15 03:40:20;;;;;;;11.45;7.05;;;8.10;99.90;;;;;;5013815;28;20045;-44
2022/04/15 03:42:48;;;;;;;16.20;8.18;;;8.00;99.90;;;;;;5013550;28;20085;-45
2022/04/15 03:45:18;;;;;;;13.27;7.15;;;8.10;99.90;;;;;;5015567;28;20052;-44
2022/04/15 03:47:44;;;;;;;10.05;6.32;;;8.10;99.90;;;;;;5013535;28;20046;-44
2022/04/15 03:50:11;;;;;;;10.35;6.43;;;8.10;99.90;;;;;;5014592;28;20054;-45
2022/04/15 03:52:42;;;;;;;10.07;5.90;;;8.10;99.90;;;;;;5017177;28;20442;-44
2022/04/15 03:55:11;;;;;;;12.50;6.00;;;8.10;99.90;;;;;;5005888;28;20045;-44
2022/04/15 03:57:39;;;;;;;11.02;6.43;;;8.10;99.90;;;;;;5011374;28;20414;-44
2022/04/15 04:00:07;;;;;;;11.50;7.55;;;8.10;99.90;;;;;;5014390;28;20421;-44
2022/04/15 04:02:34;;;;;;;17.02;6.72;;;8.10;99.90;;;;;;5015111;28;20524;-44
2022/04/15 04:05:00;;;;;;;10.95;5.85;;;8.10;99.90;;;;;;5012397;28;20395;-44
2022/04/15 04:07:27;;;;;;;13.48;7.45;;;8.20;99.90;;;;;;5009173;28;20100;-44
2022/04/15 04:09:54;;;;;;;11.25;7.22;;;8.20;99.90;;;;;;5014557;28;20100;-44
2022/04/15 04:12:21;;;;;;;12.25;6.20;;;8.20;99.90;;;;;;5004949;28;20768;-44
2022/04/15 04:14:49;;;;;;;10.23;7.07;;;8.20;99.90;;;;;;5014234;28;20104;-44
2022/04/15 04:17:15;;;;;;;12.90;8.02;;;8.20;99.90;;;;;;5014408;28;20084;-44
2022/04/15 04:19:42;;;;;;;11.93;6.93;;;8.20;99.90;;;;;;5012535;28;20134;-44
2022/04/15 04:22:09;;;;;;;12.02;7.28;;;8.20;99.90;;;;;;5013902;28;20184;-44
2022/04/15 04:24:35;;;;;;;10.60;6.22;;;8.20;99.90;;;;;;5013050;28;20054;-43
2022/04/15 04:27:02;;;;;;;10.93;6.25;;;8.20;99.90;;;;;;5013533;28;20409;-44
2022/04/15 04:29:29;;;;;;;11.50;5.90;;;8.20;99.90;;;;;;5010480;28;20276;-45
2022/04/15 04:31:57;;;;;;;15.82;6.93;;;8.20;99.90;;;;;;5010772;28;20054;-44
2022/04/15 04:34:24;;;;;;;9.18;6.38;;;8.30;99.90;;;;;;5012332;28;20504;-44
2022/04/15 04:36:50;;;;;;;12.20;6.80;;;8.30;99.90;;;;;;5014347;28;20061;-44
2022/04/15 04:39:17;;;;;;;10.00;7.07;;;8.30;99.90;;;;;;5009079;28;20078;-44
2022/04/15 04:41:44;;;;;;;13.48;8.20;;;8.30;99.90;;;;;;5008510;28;20064;-44
2022/04/15 04:44:10;;;;;;;14.85;7.05;;;8.30;99.90;;;;;;5012132;28;20520;-45
2022/04/15 04:46:37;;;;;;;13.05;7.22;;;8.30;99.90;;;;;;5010434;28;20065;-44
2022/04/15 04:49:05;;;;;;;11.27;6.50;;;8.30;99.90;;;;;;5012694;28;20045;-44
2022/04/15 04:51:32;;;;;;;14.13;8.55;;;8.30;99.90;;;;;;5013168;28;20379;-44
2022/04/15 04:53:58;;;;;;;15.10;8.13;;;8.40;99.90;;;;;;5012970;28;20053;-45
2022/04/15 04:56:26;;;;;;;15.07;8.85;;;8.30;99.90;;;;;;5011844;28;20156;-44
2022/04/15 04:58:53;;;;;;;18.58;10.13;;;8.30;99.90;;;;;;5012590;28;20053;-45
2022/04/15 05:01:20;;;;;;;16.52;9.82;;;8.30;99.90;;;;;;5011018;28;20136;-44
2022/04/15 05:03:46;;;;;;;19.42;10.57;;;8.30;99.90;;;;;;5009898;28;20056;-44
2022/04/15 05:06:14;;;;;;;16.17;10.23;;;8.30;99.90;;;;;;4998765;28;20046;-44
2022/04/15 05:08:41;;;;;;;15.75;10.00;;;8.30;99.90;;;;;;5006643;28;20053;-44
2022/04/15 05:11:08;;;;;;;18.75;10.60;;;8.30;99.90;;;;;;5011533;28;20046;-45
2022/04/15 05:13:34;;;;;;;21.98;10.65;;;8.30;99.90;;;;;;5010562;28;20512;-44
2022/04/15 05:16:01;;;;;;;17.08;10.18;;;8.30;99.90;;;;;;5009713;28;20080;-44
2022/04/15 05:18:28;;;;;;;14.20;10.13;;;8.30;99.90;;;;;;5002794;28;20049;-44
2022/04/15 05:20:54;;;;;;;13.63;9.25;;;8.30;99.90;;;;;;5004891;28;20053;-44
2022/04/15 05:23:22;;;;;;;12.93;9.27;;;8.30;99.90;;;;;;5010642;28;20061;-44
2022/04/15 05:25:49;;;;;;;12.13;7.68;;;8.30;99.90;;;;;;5007114;28;20073;-44
2022/04/15 05:28:16;;;;;;;10.90;8.27;;;8.30;99.90;;;;;;5012192;28;20052;-44
2022/04/15 05:30:42;;;;;;;11.27;8.10;;;8.30;99.90;;;;;;5010609;28;20056;-44
2022/04/15 05:33:09;;;;;;;10.95;8.07;;;8.30;99.90;;;;;;5010623;28;20482;-45
2022/04/15 05:35:36;;;;;;;10.75;7.78;;;8.30;99.90;;;;;;5012413;28;20096;-44
2022/04/15 05:38:03;;;;;;;8.20;7.30;;;8.30;99.90;;;;;;5011755;28;20046;-44
2022/04/15 05:40:31;;;;;;;13.20;6.80;;;8.30;99.90;;;;;;5005882;28;20053;-43
2022/04/15 05:42:57;;;;;;;7.85;6.55;;;8.20;99.90;;;;;;5011930;28;20056;-44
2022/04/15 05:45:24;;;;;;;9.82;6.70;;;8.30;99.90;;;;;;5007471;28;20052;-44
2022/04/15 05:47:53;;;;;;;11.15;6.78;;;8.30;99.90;;;;;;5010325;28;20105;-43
2022/04/15 05:50:20;;;;;;;11.63;6.30;;;8.30;99.90;;;;;;5009921;28;20453;-43
2022/04/15 05:52:46;;;;;;;8.15;6.38;;;8.30;99.90;;;;;;5012015;28;20140;-43
2022/04/15 05:55:13;;;;;;;9.82;6.60;;;8.30;99.90;;;;;;5010386;28;20064;-44
2022/04/15 05:57:41;;;;;;;8.02;5.75;;;8.30;99.90;;;;;;5010590;28;20072;-44
2022/04/15 06:00:09;;;;;;;8.05;5.30;;;8.30;99.90;;;;;;5008407;28;20811;-44
2022/04/15 06:02:36;;;;;;;6.72;5.13;;;8.30;99.90;;;;;;5010367;28;20646;-44
2022/04/15 06:05:03;;;;;;;7.25;5.60;;;8.30;99.90;;;;;;5008548;28;20056;-43
2022/04/15 06:07:29;;;;;;;7.85;5.85;;;8.20;99.90;;;;;;5009700;28;20050;-43
2022/04/15 06:09:56;;;;;;;6.63;5.45;;;8.20;99.90;;;;;;5008010;28;20499;-44
2022/04/15 06:12:25;;;;;;;7.30;5.35;;;8.20;99.90;;;;;;5005266;28;20042;-44
2022/04/15 06:14:53;;;;;;;7.53;5.15;;;8.20;99.90;;;;;;5009800;28;20097;-44
2022/04/15 06:17:22;;;;;;;7.35;5.13;;;8.10;99.90;;;;;;5010331;28;20472;-46
2022/04/15 06:19:49;;;;;;;8.43;5.15;;;8.00;99.90;;;;;;5007884;28;20046;-45
2022/04/15 06:22:15;;;;;;;6.15;5.03;;;8.00;99.90;;;;;;5011469;28;20482;-45
2022/04/15 06:24:42;;;;;;;6.10;5.20;;;8.00;99.90;;;;;;4998517;28;20073;-45
2022/04/15 06:27:09;;;;;;;8.30;5.13;;;8.00;99.90;;;;;;5005966;28;20050;-44
2022/04/15 06:29:35;;;;;;;9.48;5.38;;;8.00;99.90;;;;;;5009055;28;20092;-44
2022/04/15 06:32:04;;;;;;;6.32;4.75;;;8.00;99.90;;;;;;5009936;28;20394;-45
2022/04/15 06:34:31;;;;;;;7.20;4.60;;;8.00;99.90;;;;;;5001414;28;20597;-46
2022/04/15 06:36:58;;;;;;;7.68;4.57;;;8.00;99.90;;;;;;5006672;28;20111;-45
2022/04/15 06:39:25;;;;;;;8.23;4.63;;;8.00;99.90;;;;;;5007449;28;20054;-45
2022/04/15 06:41:52;;;;;;;7.35;4.40;;;7.90;99.90;;;;;;5006005;28;20517;-45
2022/04/15 06:44:19;;;;;;;6.07;4.15;;;8.00;99.90;;;;;;5010907;28;20077;-45
2022/04/15 06:46:46;;;;;;;7.20;4.68;;;7.90;99.90;;;;;;5009672;28;20060;-45
2022/04/15 06:49:14;;;;;;;6.95;4.05;;;7.90;99.90;;;;;;5007266;28;20049;-43
2022/04/15 06:51:40;;;;;;;6.32;4.22;;;7.90;99.90;;;;;;5008185;28;20163;-44
2022/04/15 06:54:07;;;;;;;5.97;4.40;;;7.90;99.90;;;;;;5000824;28;20082;-44
2022/04/15 06:56:34;;;;;;;6.45;4.55;;;7.90;99.90;;;;;;5009494;28;20490;-45
2022/04/15 06:59:00;;;;;;;6.40;4.45;;;7.90;99.90;;;;;;5010440;28;20107;-44
2022/04/15 07:01:29;;;;;;;6.72;4.35;;;7.90;99.90;;;;;;5010532;28;20056;-44
2022/04/15 07:03:56;;;;;;;8.85;4.43;;;7.90;99.90;;;;;;5009809;28;20046;-44
2022/04/15 07:06:24;;;;;;;8.23;4.82;;;7.90;99.90;;;;;;5009249;28;20093;-44
2022/04/15 07:08:50;;;;;;;8.85;5.43;;;7.90;99.90;;;;;;5006096;28;20129;-44
2022/04/15 07:11:17;;;;;;;8.98;5.15;;;8.00;99.90;;;;;;5010327;28;20052;-44
2022/04/15 07:13:44;;;;;;;9.95;5.80;;;7.90;99.90;;;;;;5004537;28;20042;-45
2022/04/15 07:16:10;;;;;;;9.63;5.80;;;8.00;99.90;;;;;;5009700;28;20510;-44
2022/04/15 07:18:37;;;;;;;9.60;5.63;;;8.00;99.90;;;;;;5004128;28;20054;-44
2022/04/15 07:21:04;;;;;;;9.27;6.35;;;8.00;99.90;;;;;;5011129;28;20056;-44
2022/04/15 07:23:32;;;;;;;10.95;6.50;;;8.00;99.90;;;;;;5009301;28;20104;-44
2022/04/15 07:25:58;;;;;;;9.73;6.90;;;8.00;99.90;;;;;;5009584;28;20474;-44
2022/04/15 07:28:25;;;;;;;10.45;6.70;;;8.00;99.90;;;;;;5003920;28;20050;-44
2022/04/15 07:30:52;;;;;;;11.68;6.95;;;8.10;99.90;;;;;;5010607;28;20060;-44
2022/04/15 07:33:19;;;;;;;9.40;6.50;;;8.10;99.90;;;;;;4999265;28;20516;-44
2022/04/15 07:35:46;;;;;;;14.55;7.70;;;8.10;99.90;;;;;;5007167;28;20057;-44
2022/04/15 07:38:13;;;;;;;11.68;7.15;;;8.20;99.90;;;;;;5006732;28;20052;-44
2022/04/15 07:40:41;;;;;;;12.30;7.22;;;8.20;99.90;;;;;;5008440;28;20046;-44
2022/04/15 07:43:09;;;;;;;14.98;8.20;;;8.30;99.90;;;;;;5008712;28;20053;-44
2022/04/15 07:45:36;;;;;;;12.10;8.90;;;8.30;99.90;;;;;;5013738;28;20054;-44
2022/04/15 07:48:02;;;;;;;13.68;8.45;;;8.30;99.90;;;;;;5013557;28;20053;-44
2022/04/15 07:50:31;;;;;;;12.95;8.48;;;8.30;99.90;;;;;;5013305;28;20137;-44
2022/04/15 07:52:58;;;;;;;14.95;8.85;;;8.40;99.90;;;;;;4990858;28;20050;-43
2022/04/15 07:55:25;;;;;;;15.10;10.82;;;8.50;99.90;;;;;;5008505;28;20056;-44
2022/04/15 07:57:53;;;;;;;19.10;11.13;;;8.50;99.90;;;;;;5012306;28;20503;-43
2022/04/15 08:00:20;;;;;;;19.35;9.68;;;8.50;99.90;;;;;;5008036;28;20406;-43
2022/04/15 08:02:48;;;;;;;18.83;10.25;;;8.50;99.90;;;;;;5014615;28;20058;-44
2022/04/15 08:05:15;;;;;;;19.42;10.68;;;8.60;99.90;;;;;;5013248;28;20132;-44
2022/04/15 08:07:41;;;;;;;16.92;10.13;;;8.60;99.90;;;;;;5013103;28;20508;-44
2022/04/15 08:10:09;;;;;;;16.08;10.27;;;8.60;99.90;;;;;;5011328;28;20046;-43
2022/04/15 08:12:37;;;;;;;19.33;11.25;;;8.60;99.90;;;;;;5010494;28;20042;-44
2022/04/15 08:15:06;;;;;;;17.45;10.25;;;8.60;99.90;;;;;;5003926;28;20058;-43
2022/04/15 08:17:33;;;;;;;15.77;10.07;;;8.70;99.90;;;;;;5013298;28;20052;-43
2022/04/15 08:20:00;;;;;;;18.20;10.55;;;8.80;99.90;;;;;;5010316;28;20053;-44
2022/04/15 08:22:26;;;;;;;15.93;10.63;;;8.70;99.90;;;;;;5010189;28;20048;-43
2022/04/15 08:24:54;;;;;;;19.30;11.25;;;8.90;99.90;;;;;;5008565;28;20134;-43
2022/04/15 08:27:21;;;;;;;20.20;10.88;;;8.90;99.90;;;;;;5006732;28;20092;-44
2022/04/15 08:29:49;;;;;;;18.63;11.43;;;9.00;99.90;;;;;;5011905;28;20046;-44
2022/04/15 08:32:17;;;;;;;15.48;11.25;;;9.00;99.90;;;;;;5012630;28;20050;-44
2022/04/15 08:34:44;;;;;;;18.35;11.68;;;9.10;99.90;;;;;;5012694;28;20052;-44
2022/04/15 08:37:12;;;;;;;20.20;12.48;;;9.10;99.90;;;;;;5013462;28;20401;-44
2022/04/15 08:39:39;;;;;;;22.67;12.40;;;9.10;99.90;;;;;;5010769;28;20054;-44
2022/04/15 08:42:06;;;;;;;21.55;12.57;;;9.00;99.90;;;;;;5009815;28;20053;-44
2022/04/15 08:44:33;;;;;;;20.77;12.80;;;9.10;99.90;;;;;;5010953;28;20041;-44
2022/04/15 08:47:00;;;;;;;22.27;12.52;;;9.20;99.90;;;;;;5010349;28;20408;-43
2022/04/15 08:49:28;;;;;;;22.23;12.70;;;9.20;99.90;;;;;;5011942;28;20426;-44
2022/04/15 08:51:54;;;;;;;19.25;11.77;;;9.30;99.90;;;;;;5010840;28;20058;-43
2022/04/15 08:54:21;;;;;;;19.90;11.77;;;9.30;99.90;;;;;;5004229;28;20052;-43
2022/04/15 08:56:48;;;;;;;21.25;11.27;;;9.40;99.90;;;;;;5012105;28;20066;-44
2022/04/15 08:59:15;;;;;;;21.38;11.27;;;9.40;99.90;;;;;;5010507;28;20132;-43
2022/04/15 09:01:42;;;;;;;21.27;10.38;;;9.50;99.90;;;;;;5015302;28;20065;-43
2022/04/15 09:04:09;;;;;;;16.17;10.38;;;9.50;99.90;;;;;;5009158;28;20057;-44
2022/04/15 09:06:38;;;;;;;13.15;9.05;;;9.60;99.90;;;;;;5008897;28;20470;-43
2022/04/15 09:09:06;;;;;;;18.08;9.25;;;9.60;99.90;;;;;;5008821;28;20370;-44
2022/04/15 09:11:34;;;;;;;16.88;9.00;;;9.60;99.90;;;;;;5012103;28;20049;-44
2022/04/15 09:14:04;;;;;;;22.40;10.18;;;9.60;99.90;;;;;;5012764;28;20053;-44
2022/04/15 09:16:32;;;;;;;27.13;10.13;;;9.60;99.90;;;;;;5009317;28;20127;-45
2022/04/15 09:18:59;;;;;;;18.95;9.55;;;9.60;99.90;;;;;;5010933;28;20068;-45
2022/04/15 09:21:26;;;;;;;22.63;10.15;;;9.70;99.90;;;;;;5012067;28;20046;-45
2022/04/15 09:23:55;;;;;;;21.70;10.15;;;9.70;99.90;;;;;;5008112;28;20334;-44
2022/04/15 09:26:22;;;;;;;16.55;9.45;;;9.70;99.90;;;;;;5011966;28;20450;-45
2022/04/15 09:28:49;;;;;;;13.80;8.73;;;9.70;99.90;;;;;;5012267;28;20471;-45
2022/04/15 09:31:16;;;;;;;18.77;9.60;;;9.70;99.90;;;;;;5001834;28;20045;-44
2022/04/15 09:33:58;;;;;;;18.83;9.75;;;9.70;99.90;;;;;;5007349;28;20050;-43
2022/04/15 09:36:29;;;;;;;16.70;8.95;;;9.80;99.90;;;;;;5007193;28;20482;-44
2022/04/15 09:39:03;;;;;;;18.08;9.90;;;9.80;99.90;;;;;;5010557;28;20066;-44
2022/04/15 09:41:31;;;;;;;17.80;9.35;;;9.90;99.90;;;;;;5007152;28;20049;-44
2022/04/15 09:43:59;;;;;;;18.85;9.05;;;9.90;99.90;;;;;;5011635;28;20042;-44
2022/04/15 09:46:27;;;;;;;20.65;9.07;;;10.00;99.90;;;;;;5010252;28;20037;-45
2022/04/15 09:49:05;;;;;;;14.52;7.80;;;10.10;99.90;;;;;;5010824;28;20418;-43
2022/04/15 09:51:33;;;;;;;14.68;7.50;;;10.30;99.90;;;;;;5007333;28;20049;-43
2022/04/15 09:54:03;;;;;;;13.38;7.30;;;10.50;99.90;;;;;;5004314;28;20130;-44
2022/04/15 09:56:32;;;;;;;11.85;7.07;;;10.60;99.90;;;;;;5007901;28;20046;-44
2022/04/15 09:59:00;;;;;;;14.60;6.68;;;10.70;99.90;;;;;;5010634;28;20080;-44
2022/04/15 10:01:28;;;;;;;14.05;7.07;;;10.70;99.90;;;;;;5002230;28;20046;-43
2022/04/15 10:03:54;;;;;;;9.13;6.30;;;10.70;99.90;;;;;;5009304;28;20057;-44
2022/04/15 10:06:21;;;;;;;9.77;7.05;;;10.80;99.90;;;;;;5009711;28;20049;-43
2022/04/15 10:08:48;;;;;;;14.38;7.43;;;10.90;99.90;;;;;;5009087;28;20461;-43
2022/04/15 10:11:16;;;;;;;12.90;6.75;;;11.00;99.90;;;;;;5002555;28;20054;-44
2022/04/15 10:13:44;;;;;;;12.52;6.60;;;11.20;99.90;;;;;;5013014;28;20045;-43
2022/04/15 10:16:11;;;;;;;12.23;6.93;;;11.50;99.90;;;;;;5007082;28;20050;-44
2022/04/15 10:18:38;;;;;;;12.13;6.75;;;11.90;99.90;;;;;;5010466;28;20054;-43
2022/04/15 10:21:05;;;;;;;10.15;6.57;;;12.10;99.90;;;;;;5012481;28;20557;-43
2022/04/15 10:23:31;;;;;;;11.65;6.75;;;12.30;99.90;;;;;;5006877;28;20046;-43
2022/04/15 10:26:00;;;;;;;12.57;6.82;;;12.30;99.90;;;;;;5011801;28;20077;-44
2022/04/15 10:28:40;;;;;;;13.57;7.05;;;12.40;99.90;;;;;;5009005;28;20046;-44
2022/04/15 10:31:08;;;;;;;14.93;7.20;;;12.40;99.40;;;;;;5016110;28;20049;-44
2022/04/15 10:33:36;;;;;;;7.75;5.88;;;12.40;99.70;;;;;;5009928;28;20056;-44
2022/04/15 10:36:11;;;;;;;10.30;6.45;;;12.50;99.40;;;;;;5010605;28;20089;-44
2022/04/15 10:38:38;;;;;;;9.43;5.88;;;12.50;99.00;;;;;;5011333;28;20388;-43
2022/04/15 10:41:13;;;;;;;10.77;5.80;;;12.50;98.90;;;;;;5012376;28;20178;-44
2022/04/15 10:43:55;;;;;;;12.60;5.90;;;12.50;98.50;;;;;;5006808;28;20050;-44
2022/04/15 10:46:28;;;;;;;12.82;6.30;;;12.40;98.90;;;;;;5010511;28;20042;-43
2022/04/15 10:48:55;;;;;;;13.50;6.30;;;12.40;98.90;;;;;;5015128;28;20512;-44
2022/04/15 10:51:23;;;;;;;11.07;6.60;;;12.40;99.20;;;;;;5013405;28;20132;-44
2022/04/15 10:53:49;;;;;;;9.98;6.40;;;12.50;98.90;;;;;;5009548;28;20050;-44
2022/04/15 10:56:18;;;;;;;10.18;5.72;;;12.40;98.50;;;;;;5012412;28;20060;-44
2022/04/15 11:01:53;;;;;;;9.75;5.60;;;12.40;98.80;;;;;;5008099;28;20517;-44
2022/04/15 11:04:24;;;;;;;11.65;6.22;;;12.30;98.80;;;;;;5004618;28;20072;-44
2022/04/15 11:06:51;;;;;;;9.07;5.70;;;12.40;98.80;;;;;;5012371;28;20050;-44
2022/04/15 11:09:21;;;;;;;10.48;5.82;;;12.40;98.80;;;;;;5012113;28;20054;-43
2022/04/15 11:11:51;;;;;;;7.80;5.43;;;12.40;98.40;;;;;;5011305;28;20417;-44
2022/04/15 11:14:19;;;;;;;11.25;5.28;;;12.50;98.60;;;;;;5002944;28;20046;-43
2022/04/15 11:16:47;;;;;;;9.20;5.15;;;12.50;98.40;;;;;;5000187;28;20053;-44
2022/04/15 11:19:17;;;;;;;8.00;4.80;;;12.60;98.10;;;;;;5012282;28;20049;-43
2022/04/15 11:21:49;;;;;;;9.70;5.15;;;12.60;97.80;;;;;;5015877;28;20472;-44
2022/04/15 11:24:20;;;;;;;9.07;5.20;;;12.60;97.90;;;;;;5008018;28;20438;-44
2022/04/15 11:26:47;;;;;;;10.48;5.70;;;12.70;97.60;;;;;;5008353;28;20060;-44
2022/04/15 11:29:14;;;;;;;11.45;6.13;;;12.70;97.70;;;;;;5013832;28;20132;-43
2022/04/15 11:31:45;;;;;;;8.85;6.22;;;12.70;97.50;;;;;;5013951;28;20050;-43
2022/04/15 11:34:15;;;;;;;13.85;6.53;;;12.70;97.10;;;;;;5015728;28;20406;-44
2022/04/15 11:36:43;;;;;;;11.68;6.70;;;12.60;97.00;;;;;;5015480;28;20060;-43
2022/04/15 11:39:11;;;;;;;9.77;6.72;;;12.60;97.30;;;;;;5015143;28;20510;-42
2022/04/15 11:41:42;;;;;;;15.77;6.32;;;12.60;97.30;;;;;;5013603;28;20413;-43
2022/04/15 11:44:09;;;;;;;12.40;6.93;;;12.60;97.30;;;;;;5011084;28;20046;-43
2022/04/15 11:46:39;;;;;;;11.43;7.00;;;12.70;97.40;;;;;;5000936;28;20058;-44
2022/04/15 11:49:17;;;;;;;12.30;6.82;;;12.70;97.00;;;;;;5006607;28;20050;-44
2022/04/15 11:51:45;;;;;;;11.07;6.75;;;12.70;96.80;;;;;;5012765;28;20052;-45
2022/04/15 11:54:11;;;;;;;10.93;7.25;;;12.70;97.00;;;;;;5000881;28;20050;-43
2022/04/15 11:56:39;;;;;;;11.73;6.63;;;12.60;96.70;;;;;;5009788;28;20402;-44
2022/04/15 11:59:09;;;;;;;12.25;6.97;;;12.40;96.60;;;;;;5014670;28;20072;-44
2022/04/15 12:01:36;;;;;;;11.57;6.68;;;12.30;96.70;;;;;;5015227;28;20053;-43
2022/04/15 12:04:02;;;;;;;10.65;6.60;;;12.20;96.60;;;;;;5013973;28;20136;-43
2022/04/15 12:06:30;;;;;;;12.30;6.60;;;12.20;96.70;;;;;;5012861;28;20407;-44
2022/04/15 12:08:57;;;;;;;9.32;6.43;;;12.20;96.90;;;;;;5011324;28;20128;-45
2022/04/15 12:11:25;;;;;;;10.27;6.45;;;12.20;96.80;;;;;;5014881;28;20058;-43
2022/04/15 12:13:59;;;;;;;10.93;6.60;;;12.20;96.90;;;;;;5015220;28;20049;-45
2022/04/15 12:16:26;;;;;;;12.80;7.10;;;12.20;97.30;;;;;;5015208;28;20060;-44
2022/04/15 12:18:53;;;;;;;10.07;6.63;;;12.30;97.30;;;;;;5013343;28;20129;-45
2022/04/15 12:21:20;;;;;;;11.75;6.43;;;12.30;97.10;;;;;;5012035;28;20136;-45
2022/04/15 12:24:04;;;;;;;9.65;6.90;;;12.30;96.70;;;;;;5005107;28;20060;-44
2022/04/15 12:26:42;;;;;;;8.70;6.50;;;12.30;96.80;;;;;;5008812;28;20057;-44
2022/04/15 12:31:53;;;;;;;11.57;6.28;;;12.30;96.90;;;;;;5013714;28;20503;-45
2022/04/15 12:34:30;;;;;;;9.80;6.35;;;12.30;96.90;;;;;;5015594;28;20124;-44
2022/04/15 12:36:57;;;;;;;8.85;5.78;;;12.40;96.50;;;;;;5007003;28;20053;-44
2022/04/15 12:39:25;;;;;;;13.10;6.88;;;12.40;96.50;;;;;;5009867;28;20086;-45
2022/04/15 12:41:51;;;;;;;21.90;5.97;;;12.40;96.50;;;;;;5013137;28;20052;-44
2022/04/15 12:44:19;;;;;;;9.88;5.75;;;12.40;96.60;;;;;;5014294;28;20398;-44
2022/04/15 12:46:46;;;;;;;8.45;5.70;;;12.50;96.50;;;;;;5013100;28;20050;-43
2022/04/15 12:49:27;;;;;;;8.35;5.38;;;12.50;96.30;;;;;;5013461;28;20483;-44
2022/04/15 12:51:58;;;;;;;10.05;5.93;;;12.50;96.00;;;;;;5009964;28;20056;-44
2022/04/15 12:54:26;;;;;;;11.85;6.78;;;12.50;96.00;;;;;;5013145;28;20112;-44